Pilot Vessel Akarana — ZMT2938 — position and weather

sailwx.info

Track history (hours):
 
Tides and Currents Weather Stations Pressure Air Temp Water Temp Dewpoint Dewpoint Depression Visibility Wind Speed Wind Dir Waves Ship Positions

Pilot Vessel Akarana

Last reported at 2015-Feb-27 20:24 UTC. Time now 2015-Feb-28 02:05 UTC.
Position S 36°50' E 174°47'.

Length 15 m; draft 1.6 m.

Type: Pilot. MMSI: 512000344.

Date/timePositionNaut miles runAvg speedWind from/ knotsBaromVisibWave heightAir tempDewpointWater temp
2015-Feb-27 20:24S 36°50' E 174°47'8 9.1
2015-Feb-27 19:33S 36°43' E 174°51'4 4.4
2015-Feb-27 18:34S 36°47' E 174°49'4 2.0
2015-Feb-27 16:33S 36°44' E 174°51'3 2.6
2015-Feb-27 15:33S 36°46' E 174°50'5 0.8
2015-Feb-27 09:26S 36°51' E 174°47'4 2.0
2015-Feb-27 07:33S 36°47' E 174°48'4 0.9
2015-Feb-27 03:22S 36°51' E 174°47'0 0.1
2015-Feb-27 02:18S 36°51' E 174°47'0 0.0
2015-Feb-27 01:33S 36°51' E 174°47'0 0.0
2015-Feb-26 22:09S 36°51' E 174°47'5 8.0
2015-Feb-26 21:33S 36°46' E 174°49'5 4.0
2015-Feb-26 20:24S 36°51' E 174°48'4 5.0
2015-Feb-26 19:33S 36°47' E 174°48'4 4.0
2015-Feb-26 18:33S 36°51' E 174°47'0 0.0
2015-Feb-26 17:33S 36°51' E 174°47'5 4.8
2015-Feb-26 16:33S 36°46' E 174°49'5 2.3
2015-Feb-26 14:29S 36°51' E 174°47'0 0.0
2015-Feb-26 11:22S 36°51' E 174°47'5 6.1
2015-Feb-26 10:33S 36°46' E 174°49'5 4.5
2015-Feb-26 09:28S 36°51' E 174°47'4 1.9
2015-Feb-26 07:25S 36°47' E 174°48'4 3.7
2015-Feb-26 06:19S 36°51' E 174°47'3 3.3
2015-Feb-26 05:25S 36°48' E 174°49'4 4.8
2015-Feb-26 04:30S 36°44' E 174°50'3 3.2
2015-Feb-26 03:31S 36°47' E 174°49'4 1.9
2015-Feb-26 01:34S 36°43' E 174°50'7 2.2
2015-Feb-25 22:15S 36°50' E 174°47'6 9.1
2015-Feb-25 21:33S 36°44' E 174°50'7 6.8
2015-Feb-25 20:33S 36°50' E 174°46'5 1.1
2015-Feb-25 16:20S 36°46' E 174°49'3 0.6
2015-Feb-25 10:33S 36°50' E 174°49'2 1.9
2015-Feb-25 09:33S 36°51' E 174°47'8 8.0
2015-Feb-25 08:33S 36°43' E 174°51'8 0.8
2015-Feb-24 22:30S 36°51' E 174°47'3 3.6
2015-Feb-24 21:34S 36°48' E 174°49'3 1.7
2015-Feb-24 19:33S 36°51' E 174°47'5 4.7
2015-Feb-24 18:34S 36°46' E 174°49'5 3.7
2015-Feb-24 17:17S 36°51' E 174°47'810.2
2015-Feb-24 16:33S 36°44' E 174°51'8 6.7
2015-Feb-24 15:26S 36°51' E 174°47'0 0.0
2015-Feb-24 14:33S 36°51' E 174°47'0 0.0
2015-Feb-24 13:23S 36°51' E 174°47'3 3.8
2015-Feb-24 12:33S 36°48' E 174°48'1 0.6
2015-Feb-24 11:33S 36°47' E 174°49'3 3.2
2015-Feb-24 10:30S 36°50' E 174°47'0 0.3
2015-Feb-24 09:27S 36°51' E 174°47'0 0.0
2015-Feb-24 08:28S 36°51' E 174°47'5 5.4
2015-Feb-24 07:34S 36°46' E 174°49'5 0.8
2015-Feb-24 01:20S 36°51' E 174°47'0 0.0
2015-Feb-24 00:26S 36°51' E 174°47'0 0.0
2015-Feb-23 23:33S 36°51' E 174°47'0 0.0
2015-Feb-23 21:12S 36°51' E 174°47'4 5.7
2015-Feb-23 20:33S 36°47' E 174°48'3 2.6
2015-Feb-23 19:32S 36°50' E 174°49'2 1.7
2015-Feb-23 18:30S 36°51' E 174°47'0 0.1
2015-Feb-23 15:33S 36°51' E 174°47'3 1.4
2015-Feb-23 13:34S 36°48' E 174°49'1 0.3
2015-Feb-23 11:33S 36°49' E 174°49'1 1.5
2015-Feb-23 10:33S 36°47' E 174°49'4 3.8
2015-Feb-23 09:33S 36°51' E 174°47'0 0.0
2015-Feb-23 08:09S 36°51' E 174°47'3 5.8
2015-Feb-23 07:33S 36°47' E 174°48'1 1.0
2015-Feb-23 06:33S 36°47' E 174°49'4 1.8
2015-Feb-23 04:10S 36°51' E 174°47'3 4.4
2015-Feb-23 03:33S 36°49' E 174°50'2 0.2
2015-Feb-22 18:31S 36°51' E 174°48'1 1.2
2015-Feb-22 17:28S 36°51' E 174°47'0 0.1
2015-Feb-22 16:24S 36°51' E 174°47'0 0.0
2015-Feb-22 11:04S 36°51' E 174°47'4 6.8
2015-Feb-22 10:33S 36°47' E 174°48'4 3.5
2015-Feb-22 09:32S 36°51' E 174°47'0 0.0
2015-Feb-22 08:24S 36°51' E 174°47'0 0.0
2015-Feb-22 07:28S 36°51' E 174°47'3 3.0
2015-Feb-22 06:33S 36°49' E 174°49'2 1.8
2015-Feb-22 05:23S 36°51' E 174°48'1 1.3
2015-Feb-22 04:28S 36°50' E 174°47'0 0.2
2015-Feb-22 03:33S 36°51' E 174°47'0 0.0
2015-Feb-22 02:31S 36°51' E 174°47'0 0.0
2015-Feb-22 01:27S 36°51' E 174°47'0 0.0
2015-Feb-22 00:33S 36°51' E 174°47'0 0.0
2015-Feb-21 23:34S 36°51' E 174°47'0 0.0
2015-Feb-21 22:33S 36°51' E 174°47'0 0.0
2015-Feb-21 21:31S 36°51' E 174°47'0 0.0
2015-Feb-21 20:33S 36°51' E 174°47'0 0.0
2015-Feb-21 19:33S 36°51' E 174°47'0 0.0
2015-Feb-21 18:27S 36°51' E 174°47'0 0.0
2015-Feb-21 17:33S 36°51' E 174°47'0 0.0
2015-Feb-21 16:33S 36°51' E 174°47'0 0.0
2015-Feb-21 15:33S 36°51' E 174°47'4 3.9
2015-Feb-21 14:33S 36°47' E 174°49'1 1.3
2015-Feb-21 13:33S 36°46' E 174°50'5 5.3
2015-Feb-21 12:33S 36°51' E 174°47'0 0.0
2015-Feb-21 11:33S 36°51' E 174°47'5 4.8
2015-Feb-21 10:33S 36°46' E 174°49'1 0.8
2015-Feb-21 09:33S 36°47' E 174°48'4 4.3
2015-Feb-21 08:33S 36°51' E 174°47'0 0.2
2015-Feb-21 07:34S 36°50' E 174°47'0 0.2
2015-Feb-21 06:33S 36°51' E 174°47'3 3.3
2015-Feb-21 05:34S 36°48' E 174°49'3 3.2
2015-Feb-21 04:33S 36°51' E 174°47'0 0.0
2015-Feb-21 03:33S 36°51' E 174°47'0 0.0
2015-Feb-21 02:33S 36°51' E 174°47'0 0.0
2015-Feb-21 01:33S 36°51' E 174°47'1 1.2
2015-Feb-21 00:33S 36°51' E 174°48'1 1.2
2015-Feb-20 23:33S 36°51' E 174°47'0 0.0
2015-Feb-20 22:33S 36°51' E 174°47'0 0.0
2015-Feb-20 21:24S 36°51' E 174°47'0 0.0
2015-Feb-20 20:28S 36°51' E 174°47'0 0.0
2015-Feb-20 19:33S 36°51' E 174°47'2 0.5
2015-Feb-20 15:31S 36°49' E 174°49'1 0.9
2015-Feb-20 14:08S 36°48' E 174°49'3 1.7
2015-Feb-20 12:21S 36°51' E 174°47'5 2.3
2015-Feb-20 10:05S 36°46' E 174°49'5 0.8
2015-Feb-20 03:33S 36°51' E 174°47'0 0.0
2015-Feb-19 14:33S 36°51' E 174°47'2 2.1
2015-Feb-19 13:33S 36°49' E 174°49'2 2.0
2015-Feb-19 12:31S 36°51' E 174°47'0 0.0
2015-Feb-19 11:33S 36°51' E 174°47'3 2.6
2015-Feb-19 10:33S 36°49' E 174°49'3 2.6
2015-Feb-19 09:34S 36°51' E 174°47'0 0.0
2015-Feb-19 08:31S 36°51' E 174°47'0 0.0
2015-Feb-19 07:32S 36°51' E 174°47'5 5.6
2015-Feb-19 06:33S 36°46' E 174°49'5 0.4
2015-Feb-18 17:26S 36°51' E 174°47'0 0.0
2015-Feb-18 15:32S 36°51' E 174°47'0 0.0
2015-Feb-18 14:33S 36°51' E 174°47'0 0.0
2015-Feb-18 13:33S 36°51' E 174°47'0 0.0
2015-Feb-18 12:15S 36°51' E 174°47'0 0.0
2015-Feb-18 11:32S 36°51' E 174°47'0 0.0
2015-Feb-18 10:33S 36°51' E 174°47'0 0.0
2015-Feb-18 09:33S 36°51' E 174°47'5 4.8
2015-Feb-18 08:33S 36°46' E 174°49'4 4.3
2015-Feb-18 07:31S 36°50' E 174°47'0 0.0
2015-Feb-17 22:07S 36°51' E 174°47'1 2.6
2015-Feb-17 21:32S 36°50' E 174°45'  
Track history (hours):
 
Tides and Currents Weather Stations Pressure Air Temp Water Temp Dewpoint Dewpoint Depression Visibility Wind Speed Wind Dir Waves Ship Positions

Pilot Vessel Akarana

Last reported at 2015-Feb-27 20:24 UTC. Time now 2015-Feb-28 02:05 UTC.
Position S 36°50' E 174°47'.

Length 15 m; draft 1.6 m.

Type: Pilot. MMSI: 512000344.

Date/timePositionNaut miles runAvg speedWind from/ knotsBaromVisibWave heightAir tempDewpointWater temp
2015-Feb-27 20:24S 36°50' E 174°47'8 9.1
2015-Feb-27 19:33S 36°43' E 174°51'4 4.4
2015-Feb-27 18:34S 36°47' E 174°49'4 2.0
2015-Feb-27 16:33S 36°44' E 174°51'3 2.6
2015-Feb-27 15:33S 36°46' E 174°50'5 0.8
2015-Feb-27 09:26S 36°51' E 174°47'4 2.0
2015-Feb-27 07:33S 36°47' E 174°48'4 0.9
2015-Feb-27 03:22S 36°51' E 174°47'0 0.1
2015-Feb-27 02:18S 36°51' E 174°47'0 0.0
2015-Feb-27 01:33S 36°51' E 174°47'0 0.0
2015-Feb-26 22:09S 36°51' E 174°47'5 8.0
2015-Feb-26 21:33S 36°46' E 174°49'5 4.0
2015-Feb-26 20:24S 36°51' E 174°48'4 5.0
2015-Feb-26 19:33S 36°47' E 174°48'4 4.0
2015-Feb-26 18:33S 36°51' E 174°47'0 0.0
2015-Feb-26 17:33S 36°51' E 174°47'5 4.8
2015-Feb-26 16:33S 36°46' E 174°49'5 2.3
2015-Feb-26 14:29S 36°51' E 174°47'0 0.0
2015-Feb-26 11:22S 36°51' E 174°47'5 6.1
2015-Feb-26 10:33S 36°46' E 174°49'5 4.5
2015-Feb-26 09:28S 36°51' E 174°47'4 1.9
2015-Feb-26 07:25S 36°47' E 174°48'4 3.7
2015-Feb-26 06:19S 36°51' E 174°47'3 3.3
2015-Feb-26 05:25S 36°48' E 174°49'4 4.8
2015-Feb-26 04:30S 36°44' E 174°50'3 3.2
2015-Feb-26 03:31S 36°47' E 174°49'4 1.9
2015-Feb-26 01:34S 36°43' E 174°50'7 2.2
2015-Feb-25 22:15S 36°50' E 174°47'6 9.1
2015-Feb-25 21:33S 36°44' E 174°50'7 6.8
2015-Feb-25 20:33S 36°50' E 174°46'5 1.1
2015-Feb-25 16:20S 36°46' E 174°49'3 0.6
2015-Feb-25 10:33S 36°50' E 174°49'2 1.9
2015-Feb-25 09:33S 36°51' E 174°47'8 8.0
2015-Feb-25 08:33S 36°43' E 174°51'8 0.8
2015-Feb-24 22:30S 36°51' E 174°47'3 3.6
2015-Feb-24 21:34S 36°48' E 174°49'3 1.7
2015-Feb-24 19:33S 36°51' E 174°47'5 4.7
2015-Feb-24 18:34S 36°46' E 174°49'5 3.7
2015-Feb-24 17:17S 36°51' E 174°47'810.2
2015-Feb-24 16:33S 36°44' E 174°51'8 6.7
2015-Feb-24 15:26S 36°51' E 174°47'0 0.0
2015-Feb-24 14:33S 36°51' E 174°47'0 0.0
2015-Feb-24 13:23S 36°51' E 174°47'3 3.8
2015-Feb-24 12:33S 36°48' E 174°48'1 0.6
2015-Feb-24 11:33S 36°47' E 174°49'3 3.2
2015-Feb-24 10:30S 36°50' E 174°47'0 0.3
2015-Feb-24 09:27S 36°51' E 174°47'0 0.0
2015-Feb-24 08:28S 36°51' E 174°47'5 5.4
2015-Feb-24 07:34S 36°46' E 174°49'5 0.8
2015-Feb-24 01:20S 36°51' E 174°47'0 0.0
2015-Feb-24 00:26S 36°51' E 174°47'0 0.0
2015-Feb-23 23:33S 36°51' E 174°47'0 0.0
2015-Feb-23 21:12S 36°51' E 174°47'4 5.7
2015-Feb-23 20:33S 36°47' E 174°48'3 2.6
2015-Feb-23 19:32S 36°50' E 174°49'2 1.7
2015-Feb-23 18:30S 36°51' E 174°47'0 0.1
2015-Feb-23 15:33S 36°51' E 174°47'3 1.4
2015-Feb-23 13:34S 36°48' E 174°49'1 0.3
2015-Feb-23 11:33S 36°49' E 174°49'1 1.5
2015-Feb-23 10:33S 36°47' E 174°49'4 3.8
2015-Feb-23 09:33S 36°51' E 174°47'0 0.0
2015-Feb-23 08:09S 36°51' E 174°47'3 5.8
2015-Feb-23 07:33S 36°47' E 174°48'1 1.0
2015-Feb-23 06:33S 36°47' E 174°49'4 1.8
2015-Feb-23 04:10S 36°51' E 174°47'3 4.4
2015-Feb-23 03:33S 36°49' E 174°50'2 0.2
2015-Feb-22 18:31S 36°51' E 174°48'1 1.2
2015-Feb-22 17:28S 36°51' E 174°47'0 0.1
2015-Feb-22 16:24S 36°51' E 174°47'0 0.0
2015-Feb-22 11:04S 36°51' E 174°47'4 6.8
2015-Feb-22 10:33S 36°47' E 174°48'4 3.5
2015-Feb-22 09:32S 36°51' E 174°47'0 0.0
2015-Feb-22 08:24S 36°51' E 174°47'0 0.0
2015-Feb-22 07:28S 36°51' E 174°47'3 3.0
2015-Feb-22 06:33S 36°49' E 174°49'2 1.8
2015-Feb-22 05:23S 36°51' E 174°48'1 1.3
2015-Feb-22 04:28S 36°50' E 174°47'0 0.2
2015-Feb-22 03:33S 36°51' E 174°47'0 0.0
2015-Feb-22 02:31S 36°51' E 174°47'0 0.0
2015-Feb-22 01:27S 36°51' E 174°47'0 0.0
2015-Feb-22 00:33S 36°51' E 174°47'0 0.0
2015-Feb-21 23:34S 36°51' E 174°47'0 0.0
2015-Feb-21 22:33S 36°51' E 174°47'0 0.0
2015-Feb-21 21:31S 36°51' E 174°47'0 0.0
2015-Feb-21 20:33S 36°51' E 174°47'0 0.0
2015-Feb-21 19:33S 36°51' E 174°47'0 0.0
2015-Feb-21 18:27S 36°51' E 174°47'0 0.0
2015-Feb-21 17:33S 36°51' E 174°47'0 0.0
2015-Feb-21 16:33S 36°51' E 174°47'0 0.0
2015-Feb-21 15:33S 36°51' E 174°47'4 3.9
2015-Feb-21 14:33S 36°47' E 174°49'1 1.3
2015-Feb-21 13:33S 36°46' E 174°50'5 5.3
2015-Feb-21 12:33S 36°51' E 174°47'0 0.0
2015-Feb-21 11:33S 36°51' E 174°47'5 4.8
2015-Feb-21 10:33S 36°46' E 174°49'1 0.8
2015-Feb-21 09:33S 36°47' E 174°48'4 4.3
2015-Feb-21 08:33S 36°51' E 174°47'0 0.2
2015-Feb-21 07:34S 36°50' E 174°47'0 0.2
2015-Feb-21 06:33S 36°51' E 174°47'3 3.3
2015-Feb-21 05:34S 36°48' E 174°49'3 3.2
2015-Feb-21 04:33S 36°51' E 174°47'0 0.0
2015-Feb-21 03:33S 36°51' E 174°47'0 0.0
2015-Feb-21 02:33S 36°51' E 174°47'0 0.0
2015-Feb-21 01:33S 36°51' E 174°47'1 1.2
2015-Feb-21 00:33S 36°51' E 174°48'1 1.2
2015-Feb-20 23:33S 36°51' E 174°47'0 0.0
2015-Feb-20 22:33S 36°51' E 174°47'0 0.0
2015-Feb-20 21:24S 36°51' E 174°47'0 0.0
2015-Feb-20 20:28S 36°51' E 174°47'0 0.0
2015-Feb-20 19:33S 36°51' E 174°47'2 0.5
2015-Feb-20 15:31S 36°49' E 174°49'1 0.9
2015-Feb-20 14:08S 36°48' E 174°49'3 1.7
2015-Feb-20 12:21S 36°51' E 174°47'5 2.3
2015-Feb-20 10:05S 36°46' E 174°49'5 0.8
2015-Feb-20 03:33S 36°51' E 174°47'0 0.0
2015-Feb-19 14:33S 36°51' E 174°47'2 2.1
2015-Feb-19 13:33S 36°49' E 174°49'2 2.0
2015-Feb-19 12:31S 36°51' E 174°47'0 0.0
2015-Feb-19 11:33S 36°51' E 174°47'3 2.6
2015-Feb-19 10:33S 36°49' E 174°49'3 2.6
2015-Feb-19 09:34S 36°51' E 174°47'0 0.0
2015-Feb-19 08:31S 36°51' E 174°47'0 0.0
2015-Feb-19 07:32S 36°51' E 174°47'5 5.6
2015-Feb-19 06:33S 36°46' E 174°49'5 0.4
2015-Feb-18 17:26S 36°51' E 174°47'0 0.0
2015-Feb-18 15:32S 36°51' E 174°47'0 0.0
2015-Feb-18 14:33S 36°51' E 174°47'0 0.0
2015-Feb-18 13:33S 36°51' E 174°47'0 0.0
2015-Feb-18 12:15S 36°51' E 174°47'0 0.0
2015-Feb-18 11:32S 36°51' E 174°47'0 0.0
2015-Feb-18 10:33S 36°51' E 174°47'0 0.0
2015-Feb-18 09:33S 36°51' E 174°47'5 4.8
2015-Feb-18 08:33S 36°46' E 174°49'4 4.3
2015-Feb-18 07:31S 36°50' E 174°47'0 0.0
2015-Feb-17 22:07S 36°51' E 174°47'1 2.6
2015-Feb-17 21:32S 36°50' E 174°45'  

Dump ship's entire track history